sensor_id;sensor_type;location;lat;lon;timestamp;P1;durP1;ratioP1;P2;durP2;ratioP2
30635;SDS011;17400;52.392;9.750;2023-04-08T00:00:38;5.60;;;3.63;;
30635;SDS011;17400;52.392;9.750;2023-04-08T00:03:06;7.07;;;3.90;;
30635;SDS011;17400;52.392;9.750;2023-04-08T00:05:35;9.60;;;4.63;;
30635;SDS011;17400;52.392;9.750;2023-04-08T00:08:02;7.72;;;4.05;;
30635;SDS011;17400;52.392;9.750;2023-04-08T00:10:30;8.32;;;5.28;;
30635;SDS011;17400;52.392;9.750;2023-04-08T00:12:58;10.77;;;4.65;;
30635;SDS011;17400;52.392;9.750;2023-04-08T00:15:26;7.40;;;4.13;;
30635;SDS011;17400;52.392;9.750;2023-04-08T00:17:54;6.70;;;4.13;;
30635;SDS011;17400;52.392;9.750;2023-04-08T00:20:22;8.15;;;4.45;;
30635;SDS011;17400;52.392;9.750;2023-04-08T00:22:52;7.75;;;3.75;;
30635;SDS011;17400;52.392;9.750;2023-04-08T00:25:19;7.10;;;4.70;;
30635;SDS011;17400;52.392;9.750;2023-04-08T00:27:50;10.63;;;4.85;;
30635;SDS011;17400;52.392;9.750;2023-04-08T00:30:18;8.82;;;4.72;;
30635;SDS011;17400;52.392;9.750;2023-04-08T00:32:46;7.85;;;4.15;;
30635;SDS011;17400;52.392;9.750;2023-04-08T00:35:14;5.95;;;3.95;;
30635;SDS011;17400;52.392;9.750;2023-04-08T00:37:43;7.10;;;4.43;;
30635;SDS011;17400;52.392;9.750;2023-04-08T00:40:12;8.05;;;4.43;;
30635;SDS011;17400;52.392;9.750;2023-04-08T00:42:40;8.05;;;4.63;;
30635;SDS011;17400;52.392;9.750;2023-04-08T00:45:08;7.75;;;4.93;;
30635;SDS011;17400;52.392;9.750;2023-04-08T00:47:37;7.15;;;4.35;;
30635;SDS011;17400;52.392;9.750;2023-04-08T00:50:07;8.40;;;4.70;;
30635;SDS011;17400;52.392;9.750;2023-04-08T00:52:35;6.82;;;4.63;;
30635;SDS011;17400;52.392;9.750;2023-04-08T00:55:03;6.57;;;3.85;;
30635;SDS011;17400;52.392;9.750;2023-04-08T00:57:33;6.55;;;4.25;;
30635;SDS011;17400;52.392;9.750;2023-04-08T01:00:02;7.22;;;4.53;;
30635;SDS011;17400;52.392;9.750;2023-04-08T01:02:33;7.43;;;3.95;;
30635;SDS011;17400;52.392;9.750;2023-04-08T01:05:06;8.75;;;4.68;;
30635;SDS011;17400;52.392;9.750;2023-04-08T01:07:40;7.38;;;4.13;;
30635;SDS011;17400;52.392;9.750;2023-04-08T01:10:13;11.48;;;5.30;;
30635;SDS011;17400;52.392;9.750;2023-04-08T01:12:47;7.50;;;4.80;;
30635;SDS011;17400;52.392;9.750;2023-04-08T01:15:18;8.45;;;4.72;;
30635;SDS011;17400;52.392;9.750;2023-04-08T01:17:46;9.02;;;4.72;;
30635;SDS011;17400;52.392;9.750;2023-04-08T01:20:16;10.50;;;5.07;;
30635;SDS011;17400;52.392;9.750;2023-04-08T01:22:51;7.40;;;4.07;;
30635;SDS011;17400;52.392;9.750;2023-04-08T01:25:30;10.32;;;4.95;;
30635;SDS011;17400;52.392;9.750;2023-04-08T01:28:03;11.00;;;5.28;;
30635;SDS011;17400;52.392;9.750;2023-04-08T01:30:32;8.90;;;4.97;;
30635;SDS011;17400;52.392;9.750;2023-04-08T01:33:01;11.95;;;7.13;;
30635;SDS011;17400;52.392;9.750;2023-04-08T01:35:30;9.18;;;5.03;;
30635;SDS011;17400;52.392;9.750;2023-04-08T01:37:59;9.88;;;5.28;;
30635;SDS011;17400;52.392;9.750;2023-04-08T01:40:29;10.30;;;4.75;;
30635;SDS011;17400;52.392;9.750;2023-04-08T01:42:57;10.68;;;4.95;;
30635;SDS011;17400;52.392;9.750;2023-04-08T01:45:28;12.70;;;4.70;;
30635;SDS011;17400;52.392;9.750;2023-04-08T01:47:57;9.23;;;4.90;;
30635;SDS011;17400;52.392;9.750;2023-04-08T01:50:26;10.32;;;4.55;;
30635;SDS011;17400;52.392;9.750;2023-04-08T01:52:55;11.98;;;5.07;;
30635;SDS011;17400;52.392;9.750;2023-04-08T01:55:25;10.32;;;5.28;;
30635;SDS011;17400;52.392;9.750;2023-04-08T01:57:55;7.53;;;4.75;;
30635;SDS011;17400;52.392;9.750;2023-04-08T02:00:28;9.10;;;4.43;;
30635;SDS011;17400;52.392;9.750;2023-04-08T02:02:58;7.18;;;3.97;;
30635;SDS011;17400;52.392;9.750;2023-04-08T02:05:27;9.90;;;5.60;;
30635;SDS011;17400;52.392;9.750;2023-04-08T02:07:55;6.43;;;4.53;;
30635;SDS011;17400;52.392;9.750;2023-04-08T02:10:22;9.38;;;4.53;;
30635;SDS011;17400;52.392;9.750;2023-04-08T02:12:50;7.35;;;3.88;;
30635;SDS011;17400;52.392;9.750;2023-04-08T02:15:18;8.77;;;4.75;;
30635;SDS011;17400;52.392;9.750;2023-04-08T02:17:48;7.68;;;4.00;;
30635;SDS011;17400;52.392;9.750;2023-04-08T02:20:20;8.95;;;4.90;;
30635;SDS011;17400;52.392;9.750;2023-04-08T02:22:52;6.57;;;3.83;;
30635;SDS011;17400;52.392;9.750;2023-04-08T02:25:24;6.73;;;4.00;;
30635;SDS011;17400;52.392;9.750;2023-04-08T02:27:53;7.65;;;3.92;;
30635;SDS011;17400;52.392;9.750;2023-04-08T02:30:22;9.97;;;4.37;;
30635;SDS011;17400;52.392;9.750;2023-04-08T02:32:54;7.38;;;4.57;;
30635;SDS011;17400;52.392;9.750;2023-04-08T02:35:24;7.93;;;4.23;;
30635;SDS011;17400;52.392;9.750;2023-04-08T02:37:54;8.57;;;4.97;;
30635;SDS011;17400;52.392;9.750;2023-04-08T02:40:22;6.25;;;3.83;;
30635;SDS011;17400;52.392;9.750;2023-04-08T02:42:51;7.55;;;4.53;;
30635;SDS011;17400;52.392;9.750;2023-04-08T02:45:19;7.82;;;4.97;;
30635;SDS011;17400;52.392;9.750;2023-04-08T02:47:49;8.80;;;5.72;;
30635;SDS011;17400;52.392;9.750;2023-04-08T02:50:18;9.20;;;4.73;;
30635;SDS011;17400;52.392;9.750;2023-04-08T02:52:46;8.30;;;4.55;;
30635;SDS011;17400;52.392;9.750;2023-04-08T02:55:13;8.35;;;4.97;;
30635;SDS011;17400;52.392;9.750;2023-04-08T02:57:41;9.45;;;5.00;;
30635;SDS011;17400;52.392;9.750;2023-04-08T03:00:10;8.32;;;4.88;;
30635;SDS011;17400;52.392;9.750;2023-04-08T03:02:38;12.32;;;6.57;;
30635;SDS011;17400;52.392;9.750;2023-04-08T03:05:07;8.18;;;4.43;;
30635;SDS011;17400;52.392;9.750;2023-04-08T03:07:36;8.77;;;5.05;;
30635;SDS011;17400;52.392;9.750;2023-04-08T03:10:05;9.02;;;4.88;;
30635;SDS011;17400;52.392;9.750;2023-04-08T03:12:33;10.65;;;4.72;;
30635;SDS011;17400;52.392;9.750;2023-04-08T03:15:01;9.82;;;5.03;;
30635;SDS011;17400;52.392;9.750;2023-04-08T03:17:29;10.70;;;5.28;;
30635;SDS011;17400;52.392;9.750;2023-04-08T03:19:59;13.93;;;5.32;;
30635;SDS011;17400;52.392;9.750;2023-04-08T03:22:27;10.45;;;5.30;;
30635;SDS011;17400;52.392;9.750;2023-04-08T03:24:56;9.18;;;5.32;;
30635;SDS011;17400;52.392;9.750;2023-04-08T03:27:23;9.68;;;4.93;;
30635;SDS011;17400;52.392;9.750;2023-04-08T03:29:51;8.45;;;5.00;;
30635;SDS011;17400;52.392;9.750;2023-04-08T03:32:19;10.13;;;5.47;;
30635;SDS011;17400;52.392;9.750;2023-04-08T03:34:49;13.00;;;5.15;;
30635;SDS011;17400;52.392;9.750;2023-04-08T03:37:17;9.85;;;5.80;;
30635;SDS011;17400;52.392;9.750;2023-04-08T03:39:45;13.47;;;6.40;;
30635;SDS011;17400;52.392;9.750;2023-04-08T03:42:14;12.25;;;6.10;;
30635;SDS011;17400;52.392;9.750;2023-04-08T03:44:42;13.10;;;6.45;;
30635;SDS011;17400;52.392;9.750;2023-04-08T03:47:09;11.70;;;5.72;;
30635;SDS011;17400;52.392;9.750;2023-04-08T03:49:39;11.90;;;6.70;;
30635;SDS011;17400;52.392;9.750;2023-04-08T03:52:06;10.55;;;5.38;;
30635;SDS011;17400;52.392;9.750;2023-04-08T03:54:34;10.82;;;5.72;;
30635;SDS011;17400;52.392;9.750;2023-04-08T03:57:02;11.45;;;5.90;;
30635;SDS011;17400;52.392;9.750;2023-04-08T03:59:30;10.88;;;4.97;;
30635;SDS011;17400;52.392;9.750;2023-04-08T04:01:59;9.43;;;5.88;;
30635;SDS011;17400;52.392;9.750;2023-04-08T04:04:27;10.38;;;5.78;;
30635;SDS011;17400;52.392;9.750;2023-04-08T04:06:54;13.27;;;5.95;;
30635;SDS011;17400;52.392;9.750;2023-04-08T04:09:22;12.02;;;6.57;;
30635;SDS011;17400;52.392;9.750;2023-04-08T04:11:50;13.18;;;6.75;;
30635;SDS011;17400;52.392;9.750;2023-04-08T04:14:17;11.63;;;6.55;;
30635;SDS011;17400;52.392;9.750;2023-04-08T04:16:46;13.90;;;7.55;;
30635;SDS011;17400;52.392;9.750;2023-04-08T04:19:14;14.18;;;7.07;;
30635;SDS011;17400;52.392;9.750;2023-04-08T04:21:43;11.48;;;6.07;;
30635;SDS011;17400;52.392;9.750;2023-04-08T04:24:11;12.70;;;7.50;;
30635;SDS011;17400;52.392;9.750;2023-04-08T04:26:39;13.70;;;6.38;;
30635;SDS011;17400;52.392;9.750;2023-04-08T04:29:07;15.15;;;7.85;;
30635;SDS011;17400;52.392;9.750;2023-04-08T04:31:35;14.52;;;7.00;;
30635;SDS011;17400;52.392;9.750;2023-04-08T04:34:04;20.35;;;8.55;;
30635;SDS011;17400;52.392;9.750;2023-04-08T04:36:32;16.35;;;7.85;;
30635;SDS011;17400;52.392;9.750;2023-04-08T04:39:00;17.63;;;9.35;;
30635;SDS011;17400;52.392;9.750;2023-04-08T04:41:27;14.52;;;7.82;;
30635;SDS011;17400;52.392;9.750;2023-04-08T04:43:55;18.60;;;8.52;;
30635;SDS011;17400;52.392;9.750;2023-04-08T04:46:23;15.48;;;8.50;;
30635;SDS011;17400;52.392;9.750;2023-04-08T04:48:51;16.60;;;7.60;;
30635;SDS011;17400;52.392;9.750;2023-04-08T04:51:19;16.20;;;7.72;;
30635;SDS011;17400;52.392;9.750;2023-04-08T04:53:47;13.10;;;7.97;;
30635;SDS011;17400;52.392;9.750;2023-04-08T04:56:15;17.20;;;8.10;;
30635;SDS011;17400;52.392;9.750;2023-04-08T04:58:43;20.50;;;8.80;;
30635;SDS011;17400;52.392;9.750;2023-04-08T05:01:11;18.02;;;8.07;;
30635;SDS011;17400;52.392;9.750;2023-04-08T05:03:38;16.17;;;7.67;;
30635;SDS011;17400;52.392;9.750;2023-04-08T05:06:06;18.90;;;8.77;;
30635;SDS011;17400;52.392;9.750;2023-04-08T05:08:35;18.10;;;8.33;;
30635;SDS011;17400;52.392;9.750;2023-04-08T05:11:03;22.90;;;8.23;;
30635;SDS011;17400;52.392;9.750;2023-04-08T05:13:31;25.92;;;10.75;;
30635;SDS011;17400;52.392;9.750;2023-04-08T05:16:01;21.80;;;8.73;;
30635;SDS011;17400;52.392;9.750;2023-04-08T05:18:29;15.40;;;8.67;;
30635;SDS011;17400;52.392;9.750;2023-04-08T05:20:57;18.10;;;8.82;;
30635;SDS011;17400;52.392;9.750;2023-04-08T05:23:25;18.03;;;8.90;;
30635;SDS011;17400;52.392;9.750;2023-04-08T05:25:54;21.23;;;9.40;;
30635;SDS011;17400;52.392;9.750;2023-04-08T05:28:21;16.43;;;8.13;;
30635;SDS011;17400;52.392;9.750;2023-04-08T05:30:49;17.20;;;8.50;;
30635;SDS011;17400;52.392;9.750;2023-04-08T05:33:20;15.20;;;7.47;;
30635;SDS011;17400;52.392;9.750;2023-04-08T05:35:47;15.93;;;7.63;;
30635;SDS011;17400;52.392;9.750;2023-04-08T05:38:15;21.10;;;9.38;;
30635;SDS011;17400;52.392;9.750;2023-04-08T05:40:43;20.70;;;9.65;;
30635;SDS011;17400;52.392;9.750;2023-04-08T05:43:12;16.63;;;7.90;;
30635;SDS011;17400;52.392;9.750;2023-04-08T05:45:40;15.05;;;8.27;;
30635;SDS011;17400;52.392;9.750;2023-04-08T05:48:07;21.63;;;9.75;;
30635;SDS011;17400;52.392;9.750;2023-04-08T05:50:35;17.20;;;9.60;;
30635;SDS011;17400;52.392;9.750;2023-04-08T05:53:02;16.33;;;8.25;;
30635;SDS011;17400;52.392;9.750;2023-04-08T05:55:30;22.27;;;9.40;;
30635;SDS011;17400;52.392;9.750;2023-04-08T05:57:58;20.17;;;8.65;;
30635;SDS011;17400;52.392;9.750;2023-04-08T06:00:27;20.33;;;9.98;;
30635;SDS011;17400;52.392;9.750;2023-04-08T06:02:54;14.43;;;7.80;;
30635;SDS011;17400;52.392;9.750;2023-04-08T06:05:23;16.05;;;8.43;;
30635;SDS011;17400;52.392;9.750;2023-04-08T06:07:51;23.75;;;11.02;;
30635;SDS011;17400;52.392;9.750;2023-04-08T06:10:18;20.58;;;9.10;;
30635;SDS011;17400;52.392;9.750;2023-04-08T06:12:46;21.38;;;9.85;;
30635;SDS011;17400;52.392;9.750;2023-04-08T06:15:14;21.73;;;9.20;;
30635;SDS011;17400;52.392;9.750;2023-04-08T06:17:43;18.42;;;8.95;;
30635;SDS011;17400;52.392;9.750;2023-04-08T06:20:11;17.65;;;8.50;;
30635;SDS011;17400;52.392;9.750;2023-04-08T06:22:38;27.05;;;9.98;;
30635;SDS011;17400;52.392;9.750;2023-04-08T06:25:06;16.83;;;8.27;;
30635;SDS011;17400;52.392;9.750;2023-04-08T06:27:34;19.77;;;9.02;;
30635;SDS011;17400;52.392;9.750;2023-04-08T06:30:02;23.95;;;10.93;;
30635;SDS011;17400;52.392;9.750;2023-04-08T06:32:30;19.42;;;8.63;;
30635;SDS011;17400;52.392;9.750;2023-04-08T06:35:00;18.92;;;9.10;;
30635;SDS011;17400;52.392;9.750;2023-04-08T06:37:27;18.30;;;10.00;;
30635;SDS011;17400;52.392;9.750;2023-04-08T06:39:55;16.48;;;9.15;;
30635;SDS011;17400;52.392;9.750;2023-04-08T06:42:23;19.02;;;10.30;;
30635;SDS011;17400;52.392;9.750;2023-04-08T06:44:51;15.23;;;8.07;;
30635;SDS011;17400;52.392;9.750;2023-04-08T06:47:19;20.25;;;7.55;;
30635;SDS011;17400;52.392;9.750;2023-04-08T06:49:47;20.02;;;9.68;;
30635;SDS011;17400;52.392;9.750;2023-04-08T06:52:16;17.45;;;9.68;;
30635;SDS011;17400;52.392;9.750;2023-04-08T06:54:44;16.85;;;8.40;;
30635;SDS011;17400;52.392;9.750;2023-04-08T06:57:12;16.00;;;9.63;;
30635;SDS011;17400;52.392;9.750;2023-04-08T06:59:40;20.15;;;9.55;;
30635;SDS011;17400;52.392;9.750;2023-04-08T07:02:08;19.55;;;9.93;;
30635;SDS011;17400;52.392;9.750;2023-04-08T07:04:36;16.98;;;7.93;;
30635;SDS011;17400;52.392;9.750;2023-04-08T07:07:04;16.25;;;9.25;;
30635;SDS011;17400;52.392;9.750;2023-04-08T07:09:33;22.15;;;9.30;;
30635;SDS011;17400;52.392;9.750;2023-04-08T07:12:02;18.13;;;9.63;;
30635;SDS011;17400;52.392;9.750;2023-04-08T07:14:30;20.63;;;10.27;;
30635;SDS011;17400;52.392;9.750;2023-04-08T07:16:58;17.08;;;10.05;;
30635;SDS011;17400;52.392;9.750;2023-04-08T07:19:26;18.23;;;9.55;;
30635;SDS011;17400;52.392;9.750;2023-04-08T07:21:54;17.63;;;9.73;;
30635;SDS011;17400;52.392;9.750;2023-04-08T07:24:21;17.05;;;8.35;;
30635;SDS011;17400;52.392;9.750;2023-04-08T07:26:51;21.73;;;9.45;;
30635;SDS011;17400;52.392;9.750;2023-04-08T07:29:20;16.17;;;8.80;;
30635;SDS011;17400;52.392;9.750;2023-04-08T07:31:49;21.83;;;10.17;;
30635;SDS011;17400;52.392;9.750;2023-04-08T07:34:17;17.10;;;8.68;;
30635;SDS011;17400;52.392;9.750;2023-04-08T07:36:44;15.93;;;8.32;;
30635;SDS011;17400;52.392;9.750;2023-04-08T07:39:12;19.23;;;9.07;;
30635;SDS011;17400;52.392;9.750;2023-04-08T07:41:40;17.33;;;7.93;;
30635;SDS011;17400;52.392;9.750;2023-04-08T07:44:09;14.30;;;7.82;;
30635;SDS011;17400;52.392;9.750;2023-04-08T07:46:36;15.38;;;8.25;;
30635;SDS011;17400;52.392;9.750;2023-04-08T07:49:05;17.13;;;9.27;;
30635;SDS011;17400;52.392;9.750;2023-04-08T07:51:32;16.70;;;9.20;;
30635;SDS011;17400;52.392;9.750;2023-04-08T07:54:00;19.73;;;11.10;;
30635;SDS011;17400;52.392;9.750;2023-04-08T07:56:28;18.30;;;8.75;;
30635;SDS011;17400;52.392;9.750;2023-04-08T07:58:56;18.75;;;9.23;;
30635;SDS011;17400;52.392;9.750;2023-04-08T08:01:25;16.85;;;8.60;;
30635;SDS011;17400;52.392;9.750;2023-04-08T08:03:56;18.77;;;9.48;;
30635;SDS011;17400;52.392;9.750;2023-04-08T08:06:24;22.30;;;10.60;;
30635;SDS011;17400;52.392;9.750;2023-04-08T08:08:52;18.55;;;9.32;;
30635;SDS011;17400;52.392;9.750;2023-04-08T08:11:20;19.10;;;9.13;;
30635;SDS011;17400;52.392;9.750;2023-04-08T08:13:50;17.17;;;9.27;;
30635;SDS011;17400;52.392;9.750;2023-04-08T08:16:18;19.17;;;9.57;;
30635;SDS011;17400;52.392;9.750;2023-04-08T08:18:47;18.00;;;8.57;;
30635;SDS011;17400;52.392;9.750;2023-04-08T08:21:15;22.08;;;10.55;;
30635;SDS011;17400;52.392;9.750;2023-04-08T08:23:43;19.58;;;9.98;;
30635;SDS011;17400;52.392;9.750;2023-04-08T08:26:11;18.00;;;9.35;;
30635;SDS011;17400;52.392;9.750;2023-04-08T08:28:39;19.80;;;10.18;;
30635;SDS011;17400;52.392;9.750;2023-04-08T08:31:06;20.35;;;10.27;;
30635;SDS011;17400;52.392;9.750;2023-04-08T08:33:34;25.05;;;10.70;;
30635;SDS011;17400;52.392;9.750;2023-04-08T08:36:03;21.63;;;9.38;;
30635;SDS011;17400;52.392;9.750;2023-04-08T08:38:32;21.45;;;9.85;;
30635;SDS011;17400;52.392;9.750;2023-04-08T08:41:00;21.48;;;9.07;;
30635;SDS011;17400;52.392;9.750;2023-04-08T08:43:29;18.25;;;9.05;;
30635;SDS011;17400;52.392;9.750;2023-04-08T08:45:58;19.48;;;9.48;;
30635;SDS011;17400;52.392;9.750;2023-04-08T08:48:26;23.77;;;9.77;;
30635;SDS011;17400;52.392;9.750;2023-04-08T08:50:56;21.55;;;9.98;;
30635;SDS011;17400;52.392;9.750;2023-04-08T08:53:28;17.35;;;8.15;;
30635;SDS011;17400;52.392;9.750;2023-04-08T08:56:01;17.75;;;9.73;;
30635;SDS011;17400;52.392;9.750;2023-04-08T08:58:31;19.80;;;9.52;;
30635;SDS011;17400;52.392;9.750;2023-04-08T09:01:00;22.77;;;9.82;;
30635;SDS011;17400;52.392;9.750;2023-04-08T09:03:27;22.45;;;9.43;;
30635;SDS011;17400;52.392;9.750;2023-04-08T09:05:57;20.98;;;9.90;;
30635;SDS011;17400;52.392;9.750;2023-04-08T09:08:26;19.20;;;11.00;;
30635;SDS011;17400;52.392;9.750;2023-04-08T09:11:09;18.42;;;10.23;;
30635;SDS011;17400;52.392;9.750;2023-04-08T09:13:37;19.45;;;9.23;;
30635;SDS011;17400;52.392;9.750;2023-04-08T09:16:06;18.67;;;9.20;;
30635;SDS011;17400;52.392;9.750;2023-04-08T09:18:35;19.60;;;9.30;;
30635;SDS011;17400;52.392;9.750;2023-04-08T09:21:05;24.23;;;10.77;;
30635;SDS011;17400;52.392;9.750;2023-04-08T09:23:41;24.30;;;10.70;;
30635;SDS011;17400;52.392;9.750;2023-04-08T09:26:12;26.70;;;12.10;;
30635;SDS011;17400;52.392;9.750;2023-04-08T09:28:42;25.70;;;11.43;;
30635;SDS011;17400;52.392;9.750;2023-04-08T09:31:21;18.77;;;10.20;;
30635;SDS011;17400;52.392;9.750;2023-04-08T09:33:51;22.58;;;11.25;;
30635;SDS011;17400;52.392;9.750;2023-04-08T09:36:20;23.80;;;12.05;;
30635;SDS011;17400;52.392;9.750;2023-04-08T09:38:50;20.65;;;10.48;;
30635;SDS011;17400;52.392;9.750;2023-04-08T09:41:18;25.25;;;10.43;;
30635;SDS011;17400;52.392;9.750;2023-04-08T09:43:50;21.30;;;10.15;;
30635;SDS011;17400;52.392;9.750;2023-04-08T09:46:25;23.20;;;10.18;;
30635;SDS011;17400;52.392;9.750;2023-04-08T09:48:57;25.13;;;11.43;;
30635;SDS011;17400;52.392;9.750;2023-04-08T09:51:32;23.17;;;11.68;;
30635;SDS011;17400;52.392;9.750;2023-04-08T09:54:09;20.05;;;10.85;;
30635;SDS011;17400;52.392;9.750;2023-04-08T09:56:42;19.42;;;10.35;;
30635;SDS011;17400;52.392;9.750;2023-04-08T09:59:14;21.52;;;10.52;;
30635;SDS011;17400;52.392;9.750;2023-04-08T10:01:49;22.95;;;10.25;;
30635;SDS011;17400;52.392;9.750;2023-04-08T10:04:19;27.45;;;11.85;;
30635;SDS011;17400;52.392;9.750;2023-04-08T10:06:50;20.58;;;10.18;;
30635;SDS011;17400;52.392;9.750;2023-04-08T10:09:22;26.98;;;9.73;;
30635;SDS011;17400;52.392;9.750;2023-04-08T10:11:52;18.95;;;9.93;;
30635;SDS011;17400;52.392;9.750;2023-04-08T10:14:20;24.05;;;11.18;;
30635;SDS011;17400;52.392;9.750;2023-04-08T10:16:48;25.50;;;10.77;;
30635;SDS011;17400;52.392;9.750;2023-04-08T10:25:28;22.00;;;9.50;;
30635;SDS011;17400;52.392;9.750;2023-04-08T10:27:57;19.40;;;9.60;;
30635;SDS011;17400;52.392;9.750;2023-04-08T10:30:37;20.90;;;9.77;;
30635;SDS011;17400;52.392;9.750;2023-04-08T10:33:08;21.25;;;9.93;;
30635;SDS011;17400;52.392;9.750;2023-04-08T10:35:38;21.15;;;9.55;;
30635;SDS011;17400;52.392;9.750;2023-04-08T10:38:11;24.25;;;10.07;;
30635;SDS011;17400;52.392;9.750;2023-04-08T10:40:41;23.52;;;10.90;;
30635;SDS011;17400;52.392;9.750;2023-04-08T10:43:10;19.98;;;9.77;;
30635;SDS011;17400;52.392;9.750;2023-04-08T10:45:39;22.10;;;10.52;;
30635;SDS011;17400;52.392;9.750;2023-04-08T10:48:11;18.42;;;9.98;;
30635;SDS011;17400;52.392;9.750;2023-04-08T10:50:40;20.30;;;11.18;;
30635;SDS011;17400;52.392;9.750;2023-04-08T10:53:08;20.05;;;9.13;;
30635;SDS011;17400;52.392;9.750;2023-04-08T10:55:37;19.98;;;9.70;;
30635;SDS011;17400;52.392;9.750;2023-04-08T10:58:07;20.33;;;9.60;;
30635;SDS011;17400;52.392;9.750;2023-04-08T11:00:37;25.10;;;10.55;;
30635;SDS011;17400;52.392;9.750;2023-04-08T11:03:06;15.32;;;8.82;;
30635;SDS011;17400;52.392;9.750;2023-04-08T11:05:35;20.67;;;9.85;;
30635;SDS011;17400;52.392;9.750;2023-04-08T11:08:04;17.10;;;8.88;;
30635;SDS011;17400;52.392;9.750;2023-04-08T11:10:35;17.40;;;9.20;;
30635;SDS011;17400;52.392;9.750;2023-04-08T11:13:06;18.58;;;9.85;;
30635;SDS011;17400;52.392;9.750;2023-04-08T11:15:36;21.25;;;11.02;;
30635;SDS011;17400;52.392;9.750;2023-04-08T11:18:03;21.48;;;10.88;;
30635;SDS011;17400;52.392;9.750;2023-04-08T11:20:32;25.15;;;12.32;;
30635;SDS011;17400;52.392;9.750;2023-04-08T11:23:02;16.75;;;8.57;;
30635;SDS011;17400;52.392;9.750;2023-04-08T11:25:30;17.42;;;9.27;;
30635;SDS011;17400;52.392;9.750;2023-04-08T11:27:58;20.25;;;9.55;;
30635;SDS011;17400;52.392;9.750;2023-04-08T11:30:28;16.52;;;10.52;;
30635;SDS011;17400;52.392;9.750;2023-04-08T11:32:56;20.45;;;8.75;;
30635;SDS011;17400;52.392;9.750;2023-04-08T11:35:27;17.50;;;8.85;;
30635;SDS011;17400;52.392;9.750;2023-04-08T11:37:55;19.17;;;9.95;;
30635;SDS011;17400;52.392;9.750;2023-04-08T11:40:24;21.38;;;9.55;;
30635;SDS011;17400;52.392;9.750;2023-04-08T11:42:52;23.15;;;11.48;;
30635;SDS011;17400;52.392;9.750;2023-04-08T11:45:20;17.05;;;9.20;;
30635;SDS011;17400;52.392;9.750;2023-04-08T11:47:49;19.80;;;9.93;;
30635;SDS011;17400;52.392;9.750;2023-04-08T11:50:21;20.73;;;9.68;;
30635;SDS011;17400;52.392;9.750;2023-04-08T11:52:50;19.85;;;10.23;;
30635;SDS011;17400;52.392;9.750;2023-04-08T11:55:23;20.25;;;10.93;;
30635;SDS011;17400;52.392;9.750;2023-04-08T11:57:52;17.95;;;10.23;;
30635;SDS011;17400;52.392;9.750;2023-04-08T12:00:22;18.95;;;10.63;;
30635;SDS011;17400;52.392;9.750;2023-04-08T12:02:51;18.33;;;9.38;;
30635;SDS011;17400;52.392;9.750;2023-04-08T12:05:19;18.27;;;9.50;;
30635;SDS011;17400;52.392;9.750;2023-04-08T12:07:47;23.30;;;11.68;;
30635;SDS011;17400;52.392;9.750;2023-04-08T12:10:15;19.65;;;9.70;;
30635;SDS011;17400;52.392;9.750;2023-04-08T12:12:43;22.65;;;9.98;;
30635;SDS011;17400;52.392;9.750;2023-04-08T12:15:10;20.50;;;9.95;;
30635;SDS011;17400;52.392;9.750;2023-04-08T12:17:38;18.77;;;9.45;;
30635;SDS011;17400;52.392;9.750;2023-04-08T12:20:08;17.92;;;11.05;;
30635;SDS011;17400;52.392;9.750;2023-04-08T12:22:37;19.08;;;9.45;;
30635;SDS011;17400;52.392;9.750;2023-04-08T12:25:05;21.17;;;10.15;;
30635;SDS011;17400;52.392;9.750;2023-04-08T12:27:33;19.98;;;10.90;;
30635;SDS011;17400;52.392;9.750;2023-04-08T12:30:01;19.77;;;9.85;;
30635;SDS011;17400;52.392;9.750;2023-04-08T12:32:29;20.63;;;9.32;;
30635;SDS011;17400;52.392;9.750;2023-04-08T12:34:57;18.33;;;9.52;;
30635;SDS011;17400;52.392;9.750;2023-04-08T12:37:26;23.30;;;10.52;;
30635;SDS011;17400;52.392;9.750;2023-04-08T12:39:54;25.20;;;10.38;;
30635;SDS011;17400;52.392;9.750;2023-04-08T12:42:21;20.77;;;10.85;;
30635;SDS011;17400;52.392;9.750;2023-04-08T12:44:49;24.08;;;11.45;;
30635;SDS011;17400;52.392;9.750;2023-04-08T12:47:18;17.23;;;10.10;;
30635;SDS011;17400;52.392;9.750;2023-04-08T12:49:46;19.45;;;10.07;;
30635;SDS011;17400;52.392;9.750;2023-04-08T12:52:15;18.52;;;9.85;;
30635;SDS011;17400;52.392;9.750;2023-04-08T12:54:45;22.27;;;10.32;;
30635;SDS011;17400;52.392;9.750;2023-04-08T12:57:13;18.65;;;9.65;;
30635;SDS011;17400;52.392;9.750;2023-04-08T12:59:40;21.73;;;9.50;;
30635;SDS011;17400;52.392;9.750;2023-04-08T13:02:08;19.77;;;11.25;;
30635;SDS011;17400;52.392;9.750;2023-04-08T13:04:36;28.80;;;11.52;;
30635;SDS011;17400;52.392;9.750;2023-04-08T13:07:04;18.60;;;10.35;;
30635;SDS011;17400;52.392;9.750;2023-04-08T13:09:32;17.48;;;9.65;;
30635;SDS011;17400;52.392;9.750;2023-04-08T13:12:01;21.90;;;10.20;;
30635;SDS011;17400;52.392;9.750;2023-04-08T13:14:30;18.50;;;10.05;;
30635;SDS011;17400;52.392;9.750;2023-04-08T13:16:58;17.08;;;9.73;;
30635;SDS011;17400;52.392;9.750;2023-04-08T13:19:25;17.00;;;8.73;;
30635;SDS011;17400;52.392;9.750;2023-04-08T13:21:53;23.25;;;11.10;;
30635;SDS011;17400;52.392;9.750;2023-04-08T13:24:21;19.73;;;10.60;;
30635;SDS011;17400;52.392;9.750;2023-04-08T13:26:49;18.65;;;8.82;;
30635;SDS011;17400;52.392;9.750;2023-04-08T13:29:18;19.50;;;9.98;;
30635;SDS011;17400;52.392;9.750;2023-04-08T13:31:46;21.05;;;10.82;;
30635;SDS011;17400;52.392;9.750;2023-04-08T13:34:14;18.92;;;7.95;;
30635;SDS011;17400;52.392;9.750;2023-04-08T13:36:42;17.48;;;8.63;;
30635;SDS011;17400;52.392;9.750;2023-04-08T13:39:09;16.25;;;9.57;;
30635;SDS011;17400;52.392;9.750;2023-04-08T13:41:37;17.20;;;9.85;;
30635;SDS011;17400;52.392;9.750;2023-04-08T13:44:05;22.40;;;10.30;;
30635;SDS011;17400;52.392;9.750;2023-04-08T13:46:34;20.15;;;10.45;;
30635;SDS011;17400;52.392;9.750;2023-04-08T13:49:02;19.08;;;9.35;;
30635;SDS011;17400;52.392;9.750;2023-04-08T13:51:30;20.52;;;8.93;;
30635;SDS011;17400;52.392;9.750;2023-04-08T13:53:57;19.65;;;9.05;;
30635;SDS011;17400;52.392;9.750;2023-04-08T13:56:25;20.38;;;9.88;;
30635;SDS011;17400;52.392;9.750;2023-04-08T13:58:53;18.02;;;10.63;;
30635;SDS011;17400;52.392;9.750;2023-04-08T14:01:23;18.60;;;11.05;;
30635;SDS011;17400;52.392;9.750;2023-04-08T14:03:52;18.58;;;9.70;;
30635;SDS011;17400;52.392;9.750;2023-04-08T14:06:20;17.80;;;10.20;;
30635;SDS011;17400;52.392;9.750;2023-04-08T14:08:48;18.77;;;9.07;;
30635;SDS011;17400;52.392;9.750;2023-04-08T14:11:16;16.20;;;9.38;;
30635;SDS011;17400;52.392;9.750;2023-04-08T14:13:44;16.45;;;8.23;;
30635;SDS011;17400;52.392;9.750;2023-04-08T14:16:11;20.35;;;9.70;;
30635;SDS011;17400;52.392;9.750;2023-04-08T14:18:39;19.63;;;9.77;;
30635;SDS011;17400;52.392;9.750;2023-04-08T14:21:08;18.38;;;9.32;;
30635;SDS011;17400;52.392;9.750;2023-04-08T14:23:38;18.60;;;9.20;;
30635;SDS011;17400;52.392;9.750;2023-04-08T14:26:06;16.90;;;9.43;;
30635;SDS011;17400;52.392;9.750;2023-04-08T14:28:34;16.35;;;9.05;;
30635;SDS011;17400;52.392;9.750;2023-04-08T14:31:01;19.92;;;10.55;;
30635;SDS011;17400;52.392;9.750;2023-04-08T14:33:31;17.05;;;8.40;;
30635;SDS011;17400;52.392;9.750;2023-04-08T14:35:59;21.20;;;10.70;;
30635;SDS011;17400;52.392;9.750;2023-04-08T14:38:29;19.77;;;9.48;;
30635;SDS011;17400;52.392;9.750;2023-04-08T14:40:56;21.90;;;9.80;;
30635;SDS011;17400;52.392;9.750;2023-04-08T14:43:24;18.38;;;10.38;;
30635;SDS011;17400;52.392;9.750;2023-04-08T14:45:52;21.35;;;9.68;;
30635;SDS011;17400;52.392;9.750;2023-04-08T14:48:20;16.60;;;8.73;;